createdAt,value
2023-05-05T00:00:26.926Z,529.00
2023-05-05T00:01:26.965Z,530.00
2023-05-05T00:02:26.991Z,529.00
2023-05-05T00:03:27.043Z,531.00
2023-05-05T00:04:26.920Z,531.00
2023-05-05T00:05:26.966Z,533.00
2023-05-05T00:06:27.332Z,532.00
2023-05-05T00:07:26.958Z,532.00
2023-05-05T00:08:26.966Z,532.00
2023-05-05T00:09:26.949Z,533.00
2023-05-05T00:10:26.956Z,534.00
2023-05-05T00:11:27.874Z,532.00
2023-05-05T00:12:26.934Z,532.00
2023-05-05T00:13:26.969Z,528.00
2023-05-05T00:14:26.955Z,528.00
2023-05-05T00:15:26.963Z,528.00
2023-05-05T00:16:27.020Z,530.00
2023-05-05T00:17:27.030Z,530.00
2023-05-05T00:18:26.945Z,530.00
2023-05-05T00:19:26.946Z,532.00
2023-05-05T00:20:26.944Z,531.00
2023-05-05T00:21:26.959Z,533.00
2023-05-05T00:22:26.987Z,532.00
2023-05-05T00:23:26.972Z,532.00
2023-05-05T00:24:26.994Z,530.00
2023-05-05T00:25:26.985Z,530.00
2023-05-05T00:26:27.104Z,532.00
2023-05-05T00:27:27.006Z,531.00
2023-05-05T00:28:27.019Z,533.00
2023-05-05T00:29:27.075Z,532.00
2023-05-05T00:30:27.066Z,533.00
2023-05-05T00:31:27.095Z,532.00
2023-05-05T00:32:27.088Z,533.00
2023-05-05T00:33:27.032Z,532.00
2023-05-05T00:34:27.081Z,534.00
2023-05-05T00:35:27.109Z,534.00
2023-05-05T00:36:27.089Z,533.00
2023-05-05T00:37:27.098Z,534.00
2023-05-05T00:38:27.127Z,535.00
2023-05-05T00:39:27.099Z,535.00
2023-05-05T00:40:27.116Z,534.00
2023-05-05T00:41:27.100Z,535.00
2023-05-05T00:42:27.191Z,535.00
2023-05-05T00:43:27.112Z,536.00
2023-05-05T00:44:27.135Z,535.00
2023-05-05T00:45:27.143Z,535.00
2023-05-05T00:46:27.335Z,534.00
2023-05-05T00:47:27.187Z,533.00
2023-05-05T00:48:27.155Z,534.00
2023-05-05T00:49:27.204Z,533.00
2023-05-05T00:50:27.162Z,531.00
2023-05-05T00:51:27.173Z,530.00
2023-05-05T00:52:27.230Z,529.00
2023-05-05T00:53:27.210Z,531.00
2023-05-05T00:54:27.198Z,532.00
2023-05-05T00:55:27.205Z,534.00
2023-05-05T00:56:27.243Z,535.00
2023-05-05T00:57:27.229Z,532.00
2023-05-05T00:58:27.234Z,535.00
2023-05-05T00:59:27.265Z,535.00
2023-05-05T01:00:27.294Z,535.00
2023-05-05T01:01:27.396Z,532.00
2023-05-05T01:02:27.334Z,532.00
2023-05-05T01:03:27.320Z,531.00
2023-05-05T01:04:27.308Z,532.00
2023-05-05T01:05:27.311Z,530.00
2023-05-05T01:06:27.325Z,531.00
2023-05-05T01:07:27.312Z,534.00
2023-05-05T01:08:27.325Z,534.00
2023-05-05T01:09:27.327Z,537.00
2023-05-05T01:10:27.598Z,539.00
2023-05-05T01:11:27.385Z,538.00
2023-05-05T01:12:27.332Z,538.00
2023-05-05T01:13:27.332Z,539.00
2023-05-05T01:14:27.367Z,537.00
2023-05-05T01:15:27.380Z,537.00
2023-05-05T01:16:27.421Z,537.00
2023-05-05T01:17:27.382Z,537.00
2023-05-05T01:18:27.384Z,537.00
2023-05-05T01:19:27.378Z,540.00
2023-05-05T01:20:27.398Z,540.00
2023-05-05T01:21:27.432Z,541.00
2023-05-05T01:22:27.415Z,543.00
2023-05-05T01:23:27.416Z,540.00
2023-05-05T01:24:27.409Z,538.00
2023-05-05T01:25:27.429Z,538.00
2023-05-05T01:26:27.423Z,538.00
2023-05-05T01:27:27.462Z,536.00
2023-05-05T01:28:27.457Z,537.00
2023-05-05T01:29:27.486Z,539.00
2023-05-05T01:30:27.506Z,539.00
2023-05-05T01:31:27.508Z,539.00
2023-05-05T01:32:27.502Z,537.00
2023-05-05T01:33:27.506Z,535.00
2023-05-05T01:34:27.548Z,535.00
2023-05-05T01:35:27.507Z,536.00
2023-05-05T01:36:27.523Z,537.00
2023-05-05T01:37:27.557Z,538.00
2023-05-05T01:38:27.552Z,539.00
2023-05-05T01:39:27.571Z,540.00
2023-05-05T01:40:27.604Z,539.00
2023-05-05T01:41:27.616Z,540.00
2023-05-05T01:42:27.616Z,543.00
2023-05-05T01:43:27.614Z,542.00
2023-05-05T01:44:27.646Z,543.00
2023-05-05T01:45:27.663Z,544.00
2023-05-05T01:46:27.648Z,543.00
2023-05-05T01:47:27.687Z,542.00
2023-05-05T01:48:27.710Z,541.00
2023-05-05T01:49:27.697Z,540.00
2023-05-05T01:50:27.702Z,540.00
2023-05-05T01:51:27.737Z,540.00
2023-05-05T01:52:27.725Z,539.00
2023-05-05T01:53:27.723Z,537.00
2023-05-05T01:54:27.744Z,538.00
2023-05-05T01:55:27.794Z,537.00
2023-05-05T01:56:27.809Z,535.00
2023-05-05T01:57:27.812Z,535.00
2023-05-05T01:58:27.806Z,533.00
2023-05-05T01:59:27.836Z,533.00
2023-05-05T02:00:27.853Z,533.00
2023-05-05T02:01:27.888Z,536.00
2023-05-05T02:02:27.903Z,537.00
2023-05-05T02:03:27.885Z,538.00
2023-05-05T02:04:27.900Z,537.00
2023-05-05T02:05:27.900Z,537.00
2023-05-05T02:06:27.881Z,537.00
2023-05-05T02:07:27.928Z,536.00
2023-05-05T02:08:27.894Z,536.00
2023-05-05T02:09:27.921Z,534.00
2023-05-05T02:10:27.920Z,535.00
2023-05-05T02:11:27.974Z,535.00
2023-05-05T02:12:27.923Z,537.00
2023-05-05T02:13:28.012Z,540.00
2023-05-05T02:14:27.971Z,543.00
2023-05-05T02:15:27.988Z,545.00
2023-05-05T02:16:27.990Z,547.00
2023-05-05T02:17:28.012Z,547.00
2023-05-05T02:18:27.998Z,545.00
2023-05-05T02:19:28.032Z,545.00
2023-05-05T02:20:28.000Z,545.00
2023-05-05T02:21:28.028Z,545.00
2023-05-05T02:22:28.056Z,547.00
2023-05-05T02:23:28.459Z,546.00
2023-05-05T02:24:28.078Z,546.00
2023-05-05T02:25:28.076Z,545.00
2023-05-05T02:26:28.122Z,546.00
2023-05-05T02:27:28.103Z,546.00
2023-05-05T02:28:28.158Z,546.00
2023-05-05T02:29:28.159Z,544.00
2023-05-05T02:30:28.198Z,542.00
2023-05-05T02:31:28.242Z,541.00
2023-05-05T02:32:28.213Z,541.00
2023-05-05T02:33:28.201Z,542.00
2023-05-05T02:34:28.212Z,541.00
2023-05-05T02:35:28.237Z,543.00
2023-05-05T02:36:28.321Z,544.00
2023-05-05T02:37:28.257Z,545.00
2023-05-05T02:38:28.267Z,546.00
2023-05-05T02:39:28.293Z,543.00
2023-05-05T02:40:28.347Z,542.00
2023-05-05T02:41:28.318Z,542.00
2023-05-05T02:42:28.318Z,543.00
2023-05-05T02:43:28.318Z,542.00
2023-05-05T02:44:28.357Z,544.00
2023-05-05T02:45:28.362Z,544.00
2023-05-05T02:46:28.440Z,542.00
2023-05-05T02:47:28.424Z,544.00
2023-05-05T02:48:28.422Z,546.00
2023-05-05T02:49:28.429Z,550.00
2023-05-05T02:50:28.445Z,548.00
2023-05-05T02:51:28.483Z,548.00
2023-05-05T02:52:28.468Z,548.00
2023-05-05T02:53:28.489Z,550.00
2023-05-05T02:54:28.505Z,548.00
2023-05-05T02:55:28.513Z,548.00
2023-05-05T02:56:28.541Z,546.00
2023-05-05T02:57:28.545Z,542.00
2023-05-05T02:58:28.617Z,541.00
2023-05-05T02:59:28.584Z,542.00
2023-05-05T03:00:28.615Z,544.00
2023-05-05T03:01:28.688Z,546.00
2023-05-05T03:02:28.706Z,546.00
2023-05-05T03:03:28.792Z,546.00
2023-05-05T03:04:28.673Z,546.00
2023-05-05T03:05:28.712Z,549.00
2023-05-05T03:06:28.720Z,548.00
2023-05-05T03:07:28.711Z,546.00
2023-05-05T03:08:28.749Z,548.00
2023-05-05T03:09:28.762Z,549.00
2023-05-05T03:10:28.753Z,549.00
2023-05-05T03:11:28.798Z,546.00
2023-05-05T03:12:28.827Z,546.00
2023-05-05T03:13:28.837Z,546.00
2023-05-05T03:14:29.570Z,546.00
2023-05-05T03:15:28.880Z,548.00
2023-05-05T03:16:28.888Z,548.00
2023-05-05T03:17:28.950Z,549.00
2023-05-05T03:18:28.926Z,547.00
2023-05-05T03:19:28.955Z,549.00
2023-05-05T03:20:28.963Z,548.00
2023-05-05T03:21:28.984Z,549.00
2023-05-05T03:22:28.994Z,549.00
2023-05-05T03:23:29.030Z,548.00
2023-05-05T03:24:29.059Z,549.00
2023-05-05T03:25:29.081Z,550.00
2023-05-05T03:26:29.091Z,551.00
2023-05-05T03:27:29.126Z,549.00
2023-05-05T03:28:29.174Z,549.00
2023-05-05T03:29:29.179Z,552.00
2023-05-05T03:30:29.188Z,553.00
2023-05-05T03:31:29.248Z,550.00
2023-05-05T03:32:29.257Z,549.00
2023-05-05T03:33:29.419Z,552.00
2023-05-05T03:34:29.267Z,558.00
2023-05-05T03:35:29.315Z,560.00
2023-05-05T03:36:29.616Z,561.00
2023-05-05T03:37:29.344Z,559.00
2023-05-05T03:38:29.371Z,557.00
2023-05-05T03:39:29.380Z,557.00
2023-05-05T03:40:40.454Z,557.00
2023-05-05T03:41:30.387Z,556.00
2023-05-05T03:42:29.392Z,559.00
2023-05-05T03:43:29.388Z,559.00
2023-05-05T03:44:29.378Z,558.00
2023-05-05T03:45:29.403Z,557.00
2023-05-05T03:46:29.399Z,555.00
2023-05-05T03:47:29.355Z,555.00
2023-05-05T03:48:29.355Z,556.00
2023-05-05T03:49:29.322Z,556.00
2023-05-05T03:50:29.324Z,554.00
2023-05-05T03:51:29.358Z,555.00
2023-05-05T03:52:29.307Z,553.00
2023-05-05T03:53:29.345Z,555.00
2023-05-05T03:54:29.297Z,553.00
2023-05-05T03:55:29.280Z,552.00
2023-05-05T03:56:29.292Z,551.00
2023-05-05T03:57:29.323Z,554.00
2023-05-05T03:58:29.337Z,553.00
2023-05-05T03:59:29.365Z,554.00
2023-05-05T04:00:29.385Z,556.00
2023-05-05T04:01:29.414Z,555.00
2023-05-05T04:02:29.457Z,553.00
2023-05-05T04:03:29.507Z,552.00
2023-05-05T04:04:29.553Z,553.00
2023-05-05T04:05:29.503Z,551.00
2023-05-05T04:06:29.536Z,551.00
2023-05-05T04:07:29.525Z,550.00
2023-05-05T04:08:29.585Z,551.00
2023-05-05T04:09:29.579Z,551.00
2023-05-05T04:10:29.714Z,551.00
2023-05-05T04:11:29.659Z,555.00
2023-05-05T04:12:29.661Z,558.00
2023-05-05T04:13:29.699Z,560.00
2023-05-05T04:14:29.699Z,561.00
2023-05-05T04:15:29.733Z,560.00
2023-05-05T04:16:29.806Z,559.00
2023-05-05T04:17:29.834Z,558.00
2023-05-05T04:18:29.823Z,556.00
2023-05-05T04:19:29.840Z,558.00
2023-05-05T04:20:29.862Z,561.00
2023-05-05T04:21:29.916Z,559.00
2023-05-05T04:22:29.923Z,559.00
2023-05-05T04:23:29.971Z,559.00
2023-05-05T04:24:29.989Z,561.00
2023-05-05T04:25:29.994Z,561.00
2023-05-05T04:26:30.008Z,562.00
2023-05-05T04:27:30.058Z,562.00
2023-05-05T04:28:30.062Z,564.00
2023-05-05T04:29:30.084Z,558.00
2023-05-05T04:30:30.149Z,556.00
2023-05-05T04:31:30.577Z,558.00
2023-05-05T04:32:30.215Z,558.00
2023-05-05T04:33:30.202Z,558.00
2023-05-05T04:34:30.266Z,556.00
2023-05-05T04:35:30.280Z,556.00
2023-05-05T04:36:30.264Z,555.00
2023-05-05T04:37:30.313Z,555.00
2023-05-05T04:38:30.455Z,554.00
2023-05-05T04:39:30.433Z,554.00
2023-05-05T04:40:30.418Z,553.00
2023-05-05T04:41:30.487Z,553.00
2023-05-05T04:42:30.470Z,556.00
2023-05-05T04:43:30.487Z,555.00
2023-05-05T04:44:30.518Z,558.00
2023-05-05T04:45:30.531Z,557.00
2023-05-05T04:46:30.563Z,558.00
2023-05-05T04:47:30.604Z,558.00
2023-05-05T04:48:30.609Z,559.00
2023-05-05T04:49:31.498Z,558.00
2023-05-05T04:50:30.622Z,556.00
2023-05-05T04:51:30.976Z,558.00
2023-05-05T04:52:30.701Z,558.00
2023-05-05T04:53:30.695Z,558.00
2023-05-05T04:54:30.743Z,555.00
2023-05-05T04:55:30.743Z,554.00
2023-05-05T04:56:30.803Z,554.00
2023-05-05T04:57:30.798Z,556.00
2023-05-05T04:58:30.983Z,556.00
2023-05-05T04:59:30.836Z,557.00
2023-05-05T05:00:30.857Z,556.00
2023-05-05T05:01:30.913Z,557.00
2023-05-05T05:02:30.960Z,557.00
2023-05-05T05:03:31.050Z,558.00
2023-05-05T05:04:30.974Z,558.00
2023-05-05T05:05:30.984Z,557.00
2023-05-05T05:06:30.993Z,557.00
2023-05-05T05:07:30.993Z,557.00
2023-05-05T05:08:31.028Z,558.00
2023-05-05T05:09:31.026Z,558.00
2023-05-05T05:10:31.103Z,562.00
2023-05-05T05:11:31.087Z,563.00
2023-05-05T05:12:31.129Z,565.00
2023-05-05T05:13:31.124Z,565.00
2023-05-05T05:14:31.137Z,564.00
2023-05-05T05:15:31.170Z,565.00
2023-05-05T05:16:31.212Z,565.00
2023-05-05T05:17:31.252Z,565.00
2023-05-05T05:18:31.259Z,565.00
2023-05-05T05:19:31.267Z,563.00
2023-05-05T05:20:31.260Z,563.00
2023-05-05T05:21:31.246Z,561.00
2023-05-05T05:22:31.260Z,558.00
2023-05-05T05:23:31.296Z,558.00
2023-05-05T05:24:31.321Z,560.00
2023-05-05T05:25:31.345Z,562.00
2023-05-05T05:26:31.365Z,561.00
2023-05-05T05:27:31.366Z,560.00
2023-05-05T05:28:31.385Z,561.00
2023-05-05T05:29:31.450Z,561.00
2023-05-05T05:30:31.422Z,560.00
2023-05-05T05:31:31.528Z,558.00
2023-05-05T05:32:31.492Z,557.00
2023-05-05T05:33:31.484Z,560.00
2023-05-05T05:34:31.500Z,562.00
2023-05-05T05:35:31.524Z,570.00
2023-05-05T05:36:31.521Z,594.00
2023-05-05T05:37:31.551Z,670.00
2023-05-05T05:38:31.546Z,691.00
2023-05-05T05:39:31.533Z,800.00
2023-05-05T05:40:31.564Z,799.00
2023-05-05T05:41:32.009Z,815.00
2023-05-05T05:42:31.528Z,913.00
2023-05-05T05:43:31.655Z,945.00
2023-05-05T05:44:31.514Z,1010.00
2023-05-05T05:45:31.530Z,1025.00
2023-05-05T05:46:31.674Z,1017.00
2023-05-05T05:47:31.681Z,1014.00
2023-05-05T05:48:31.717Z,1032.00
2023-05-05T05:49:31.747Z,1023.00
2023-05-05T05:50:31.795Z,1063.00
2023-05-05T05:51:31.888Z,1072.00
2023-05-05T05:52:31.916Z,1080.00
2023-05-05T05:53:32.004Z,1087.00
2023-05-05T05:54:32.060Z,1089.00
2023-05-05T05:55:32.142Z,1099.00
2023-05-05T05:56:32.206Z,1105.00
2023-05-05T05:57:32.236Z,1107.00
2023-05-05T05:58:32.232Z,1111.00
2023-05-05T05:59:32.284Z,1114.00
2023-05-05T06:00:32.333Z,1113.00
2023-05-05T06:01:32.438Z,1109.00
2023-05-05T06:02:32.461Z,1108.00
2023-05-05T06:03:32.550Z,1107.00
2023-05-05T06:04:32.554Z,1108.00
2023-05-05T06:05:32.649Z,1107.00
2023-05-05T06:06:33.005Z,1106.00
2023-05-05T06:07:32.589Z,1104.00
2023-05-05T06:08:33.012Z,1103.00
2023-05-05T06:09:32.706Z,1103.00
2023-05-05T06:10:33.038Z,1103.00
2023-05-05T06:11:32.763Z,1103.00
2023-05-05T06:12:32.838Z,1101.00
2023-05-05T06:13:32.790Z,1101.00
2023-05-05T06:14:32.851Z,1101.00
2023-05-05T06:15:32.808Z,1099.00
2023-05-05T06:16:33.074Z,1097.00
2023-05-05T06:17:32.857Z,1098.00
2023-05-05T06:18:32.869Z,1099.00
2023-05-05T06:19:32.896Z,1096.00
2023-05-05T06:20:32.909Z,1095.00
2023-05-05T06:21:32.874Z,1094.00
2023-05-05T06:22:32.946Z,1094.00
2023-05-05T06:23:33.035Z,1095.00
2023-05-05T06:24:32.968Z,1093.00
2023-05-05T06:25:33.000Z,1089.00
2023-05-05T06:26:33.040Z,1090.00
2023-05-05T06:27:36.008Z,1092.00
2023-05-05T06:28:33.655Z,1092.00
2023-05-05T06:29:32.984Z,1092.00
2023-05-05T06:30:33.004Z,1090.00
2023-05-05T06:31:33.016Z,1089.00
2023-05-05T06:32:33.015Z,1089.00
2023-05-05T06:33:32.993Z,1089.00
2023-05-05T06:34:32.946Z,1089.00
2023-05-05T06:35:32.967Z,1087.00
2023-05-05T06:36:33.026Z,1085.00
2023-05-05T06:37:32.943Z,1085.00
2023-05-05T06:38:33.038Z,1082.00
2023-05-05T06:39:33.077Z,1084.00
2023-05-05T06:40:32.946Z,1081.00
2023-05-05T06:41:32.948Z,1080.00
2023-05-05T06:42:32.913Z,1078.00
2023-05-05T06:43:32.997Z,1079.00
2023-05-05T06:44:32.885Z,1075.00
2023-05-05T06:45:32.886Z,1074.00
2023-05-05T06:46:32.871Z,1073.00
2023-05-05T06:47:33.082Z,1074.00
2023-05-05T06:48:32.865Z,1075.00
2023-05-05T06:49:32.856Z,1075.00
2023-05-05T06:50:32.849Z,1074.00
2023-05-05T06:51:32.830Z,1075.00
2023-05-05T06:52:32.830Z,1076.00
2023-05-05T06:53:32.876Z,1074.00
2023-05-05T06:54:32.813Z,1072.00
2023-05-05T06:55:32.798Z,1069.00
2023-05-05T06:56:32.818Z,1066.00
2023-05-05T06:57:32.853Z,1064.00
2023-05-05T06:58:32.784Z,1063.00
2023-05-05T06:59:32.790Z,1066.00
2023-05-05T07:00:32.811Z,1064.00
2023-05-05T07:01:32.786Z,1062.00
2023-05-05T07:02:32.758Z,1060.00
2023-05-05T07:03:32.849Z,1059.00
2023-05-05T07:04:32.788Z,1057.00
2023-05-05T07:05:32.754Z,1056.00
2023-05-05T07:06:32.751Z,1052.00
2023-05-05T07:07:32.741Z,1051.00
2023-05-05T07:08:33.058Z,1052.00
2023-05-05T07:09:32.774Z,1053.00
2023-05-05T07:10:32.704Z,1052.00
2023-05-05T07:11:32.702Z,1053.00
2023-05-05T07:12:32.776Z,1055.00
2023-05-05T07:13:32.707Z,1054.00
2023-05-05T07:14:32.660Z,1055.00
2023-05-05T07:15:32.711Z,1055.00
2023-05-05T07:16:32.760Z,1056.00
2023-05-05T07:17:32.696Z,1055.00
2023-05-05T07:18:32.731Z,1052.00
2023-05-05T07:19:32.898Z,1053.00
2023-05-05T07:20:32.652Z,1050.00
2023-05-05T07:21:32.641Z,1050.00
2023-05-05T07:22:32.626Z,1049.00
2023-05-05T07:23:32.634Z,1048.00
2023-05-05T07:24:32.627Z,1048.00
2023-05-05T07:25:32.715Z,1048.00
2023-05-05T07:26:32.599Z,1046.00
2023-05-05T07:27:32.585Z,1045.00
2023-05-05T07:28:32.613Z,1044.00
2023-05-05T07:29:33.041Z,1044.00
2023-05-05T07:30:32.603Z,1043.00
2023-05-05T07:31:32.629Z,1042.00
2023-05-05T07:32:32.602Z,1118.00
2023-05-05T07:33:32.646Z,1087.00
2023-05-05T07:34:33.139Z,1113.00
2023-05-05T07:35:32.686Z,1211.00
2023-05-05T07:36:32.760Z,1242.00
2023-05-05T07:37:32.814Z,1295.00
2023-05-05T07:38:32.862Z,1342.00
2023-05-05T07:39:32.917Z,1382.00
2023-05-05T07:40:32.978Z,1415.00
2023-05-05T07:41:33.094Z,1496.00
2023-05-05T07:42:33.112Z,1513.00
2023-05-05T07:43:33.096Z,1530.00
2023-05-05T07:44:33.116Z,1601.00
2023-05-05T07:45:33.127Z,1637.00
2023-05-05T07:46:33.180Z,1652.00
2023-05-05T07:47:33.227Z,1676.00
2023-05-05T07:48:33.173Z,1732.00
2023-05-05T07:49:33.219Z,1762.00
2023-05-05T07:50:33.219Z,1783.00
2023-05-05T07:51:34.494Z,1798.00
2023-05-05T07:52:45.408Z,1823.00
2023-05-05T07:53:34.164Z,1856.00
2023-05-05T07:54:33.271Z,1883.00
2023-05-05T07:55:33.207Z,1903.00
2023-05-05T07:56:33.157Z,1928.00
2023-05-05T07:57:33.229Z,1960.00
2023-05-05T07:58:33.153Z,2009.00
2023-05-05T07:59:33.118Z,2037.00
2023-05-05T08:00:33.180Z,2067.00
2023-05-05T08:01:33.219Z,2152.00
2023-05-05T08:02:33.412Z,2170.00
2023-05-05T08:03:33.521Z,2183.00
2023-05-05T08:04:33.423Z,2208.00
2023-05-05T08:05:33.454Z,2276.00
2023-05-05T08:06:33.477Z,2323.00
2023-05-05T08:07:33.611Z,2354.00
2023-05-05T08:08:33.604Z,2408.00
2023-05-05T08:09:33.618Z,2426.00
2023-05-05T08:10:33.657Z,2463.00
2023-05-05T08:11:33.720Z,2506.00
2023-05-05T08:12:33.872Z,2587.00
2023-05-05T08:13:33.792Z,2578.00
2023-05-05T08:14:33.749Z,2586.00
2023-05-05T08:15:33.908Z,2622.00
2023-05-05T08:16:33.879Z,2678.00
2023-05-05T08:17:33.932Z,2702.00
2023-05-05T08:18:33.872Z,2715.00
2023-05-05T08:19:33.852Z,2730.00
2023-05-05T08:20:33.871Z,2749.00
2023-05-05T08:21:33.905Z,2785.00
2023-05-05T08:22:33.923Z,2863.00
2023-05-05T08:23:33.907Z,2939.00
2023-05-05T08:24:33.964Z,2977.00
2023-05-05T08:25:33.885Z,2964.00
2023-05-05T08:26:33.890Z,2909.00
2023-05-05T08:27:34.054Z,2905.00
2023-05-05T08:28:33.927Z,2867.00
2023-05-05T08:29:33.985Z,2871.00
2023-05-05T08:30:33.966Z,2880.00
2023-05-05T08:31:34.028Z,2890.00
2023-05-05T08:32:34.079Z,2897.00
2023-05-05T08:33:34.007Z,2900.00
2023-05-05T08:34:34.053Z,2899.00
2023-05-05T08:35:34.073Z,2899.00
2023-05-05T08:36:34.089Z,2899.00
2023-05-05T08:37:34.170Z,2892.00
2023-05-05T08:38:34.190Z,2888.00
2023-05-05T08:39:34.323Z,2500.00
2023-05-05T08:40:34.280Z,1980.00
2023-05-05T08:41:34.340Z,1818.00
2023-05-05T08:42:38.790Z,1909.00
2023-05-05T08:43:34.431Z,1764.00
2023-05-05T08:44:35.047Z,1827.00
2023-05-05T08:45:34.551Z,1685.00
2023-05-05T08:46:34.426Z,1649.00
2023-05-05T08:47:34.466Z,1652.00
2023-05-05T08:48:34.359Z,1670.00
2023-05-05T08:49:34.356Z,1747.00
2023-05-05T08:50:34.430Z,1770.00
2023-05-05T08:51:34.381Z,1762.00
2023-05-05T08:52:34.582Z,1764.00
2023-05-05T08:53:34.317Z,1770.00
2023-05-05T08:54:34.559Z,1776.00
2023-05-05T08:55:34.347Z,1833.00
2023-05-05T08:56:34.336Z,1869.00
2023-05-05T08:57:34.377Z,1877.00
2023-05-05T08:58:34.575Z,1884.00
2023-05-05T08:59:34.423Z,1894.00
2023-05-05T09:00:34.389Z,1912.00
2023-05-05T09:01:34.641Z,1924.00
2023-05-05T09:02:34.461Z,1957.00
2023-05-05T09:03:34.464Z,1993.00
2023-05-05T09:04:34.419Z,2002.00
2023-05-05T09:05:34.429Z,2013.00
2023-05-05T09:06:34.394Z,1952.00
2023-05-05T09:07:34.416Z,1983.00
2023-05-05T09:08:34.440Z,1988.00
2023-05-05T09:09:34.457Z,2000.00
2023-05-05T09:10:34.506Z,2008.00
2023-05-05T09:11:34.486Z,2015.00
2023-05-05T09:12:34.632Z,2026.00
2023-05-05T09:13:34.576Z,2044.00
2023-05-05T09:14:34.709Z,2060.00
2023-05-05T09:15:34.692Z,2079.00
2023-05-05T09:16:34.844Z,2093.00
2023-05-05T09:17:34.933Z,2110.00
2023-05-05T09:18:34.880Z,2133.00
2023-05-05T09:19:34.947Z,2135.00
2023-05-05T09:20:34.971Z,2135.00
2023-05-05T09:21:35.043Z,2135.00
2023-05-05T09:22:35.091Z,2138.00
2023-05-05T09:23:35.152Z,2155.00
2023-05-05T09:24:35.255Z,2242.00
2023-05-05T09:25:37.101Z,2241.00
2023-05-05T09:26:35.331Z,2228.00
2023-05-05T09:27:35.392Z,2234.00
2023-05-05T09:28:35.472Z,2390.00
2023-05-05T09:29:35.542Z,2388.00
2023-05-05T09:30:35.604Z,2306.00
2023-05-05T09:31:35.628Z,2382.00
2023-05-05T09:32:35.932Z,2339.00
2023-05-05T09:33:35.824Z,2318.00
2023-05-05T09:34:35.820Z,2305.00
2023-05-05T09:35:35.865Z,2285.00
2023-05-05T09:36:35.937Z,2290.00
2023-05-05T09:37:35.961Z,2230.00
2023-05-05T09:38:36.041Z,2259.00
2023-05-05T09:39:36.076Z,2279.00
2023-05-05T09:40:36.138Z,2285.00
2023-05-05T09:41:36.177Z,2323.00
2023-05-05T09:42:36.186Z,2362.00
2023-05-05T09:43:36.248Z,2427.00
2023-05-05T09:44:36.585Z,2451.00
2023-05-05T09:45:36.319Z,2462.00
2023-05-05T09:46:36.417Z,2494.00
2023-05-05T09:47:36.493Z,2535.00
2023-05-05T09:48:36.495Z,2575.00
2023-05-05T09:49:36.724Z,2608.00
2023-05-05T09:50:36.536Z,2699.00
2023-05-05T09:51:36.597Z,2706.00
2023-05-05T09:52:36.681Z,2694.00
2023-05-05T09:53:36.691Z,2629.00
2023-05-05T09:54:36.705Z,2471.00
2023-05-05T09:55:36.768Z,2478.00
2023-05-05T09:56:36.815Z,2478.00
2023-05-05T09:57:36.887Z,2471.00
2023-05-05T09:58:36.933Z,2424.00
2023-05-05T09:59:36.944Z,2358.00
2023-05-05T10:00:37.000Z,2296.00
2023-05-05T10:01:37.067Z,2296.00
2023-05-05T10:02:37.126Z,2304.00
2023-05-05T10:03:37.119Z,2196.00
2023-05-05T10:04:37.198Z,2193.00
2023-05-05T10:05:37.267Z,2190.00
2023-05-05T10:06:37.275Z,2108.00
2023-05-05T10:07:37.325Z,2116.00
2023-05-05T10:08:37.387Z,2036.00
2023-05-05T10:09:37.395Z,2148.00
2023-05-05T10:10:37.465Z,2212.00
2023-05-05T10:11:37.542Z,2197.00
2023-05-05T10:12:37.664Z,2120.00
2023-05-05T10:13:37.595Z,2162.00
2023-05-05T10:14:37.668Z,2190.00
2023-05-05T10:15:37.737Z,2209.00
2023-05-05T10:16:37.759Z,2245.00
2023-05-05T10:17:37.852Z,2264.00
2023-05-05T10:18:37.856Z,2274.00
2023-05-05T10:19:37.887Z,2297.00
2023-05-05T10:20:38.081Z,2306.00
2023-05-05T10:21:38.989Z,2324.00
2023-05-05T10:22:38.013Z,2339.00
2023-05-05T10:23:38.070Z,2363.00
2023-05-05T10:24:38.124Z,2425.00
2023-05-05T10:25:38.141Z,2448.00
2023-05-05T10:26:38.184Z,2447.00
2023-05-05T10:27:38.255Z,2318.00
2023-05-05T10:28:38.659Z,2375.00
2023-05-05T10:29:38.333Z,2445.00
2023-05-05T10:30:38.354Z,2350.00
2023-05-05T10:31:38.422Z,2348.00
2023-05-05T10:33:38.589Z,2291.00
2023-05-05T10:34:38.542Z,2295.00
2023-05-05T10:35:38.494Z,2305.00
2023-05-05T10:36:38.452Z,2317.00
2023-05-05T10:37:38.592Z,2326.00
2023-05-05T10:38:38.475Z,2327.00
2023-05-05T10:39:38.420Z,2330.00
2023-05-05T10:40:38.428Z,2331.00
2023-05-05T10:41:38.417Z,2328.00
2023-05-05T10:42:38.399Z,2326.00
2023-05-05T10:43:38.594Z,2328.00
2023-05-05T10:44:38.603Z,2327.00
2023-05-05T10:45:38.437Z,2325.00
2023-05-05T10:46:38.468Z,2322.00
2023-05-05T10:47:38.444Z,2323.00
2023-05-05T10:48:38.428Z,2321.00
2023-05-05T10:49:38.629Z,2319.00
2023-05-05T10:50:38.346Z,2320.00
2023-05-05T10:51:40.397Z,2320.00
2023-05-05T10:52:38.371Z,2317.00
2023-05-05T10:53:38.438Z,2315.00
2023-05-05T10:54:38.700Z,2316.00
2023-05-05T10:55:38.383Z,2316.00
2023-05-05T10:56:38.365Z,2313.00
2023-05-05T10:57:38.370Z,2306.00
2023-05-05T10:58:51.028Z,2307.00
2023-05-05T10:59:39.402Z,2305.00
2023-05-05T11:00:38.419Z,2304.00
2023-05-05T11:01:38.422Z,2301.00
2023-05-05T11:02:38.405Z,2298.00
2023-05-05T11:03:38.403Z,2298.00
2023-05-05T11:04:38.369Z,2297.00
2023-05-05T11:05:38.365Z,2294.00
2023-05-05T11:06:38.353Z,2291.00
2023-05-05T11:07:38.338Z,2289.00
2023-05-05T11:08:38.373Z,2286.00
2023-05-05T11:09:38.421Z,2281.00
2023-05-05T11:10:38.367Z,2281.00
2023-05-05T11:11:38.296Z,2281.00
2023-05-05T11:12:39.012Z,2282.00
2023-05-05T11:13:38.334Z,2283.00
2023-05-05T11:14:38.302Z,2280.00
2023-05-05T11:15:38.310Z,2281.00
2023-05-05T11:16:38.321Z,2280.00
2023-05-05T11:17:38.293Z,2281.00
2023-05-05T11:18:38.277Z,2282.00
2023-05-05T11:19:38.341Z,2277.00
2023-05-05T11:20:38.242Z,2276.00
2023-05-05T11:21:38.286Z,2273.00
2023-05-05T11:22:38.323Z,2273.00
2023-05-05T11:23:38.664Z,2271.00
2023-05-05T11:24:38.351Z,2266.00
2023-05-05T11:25:38.564Z,2263.00
2023-05-05T11:26:38.402Z,2268.00
2023-05-05T11:27:38.431Z,2267.00
2023-05-05T11:28:38.508Z,2265.00
2023-05-05T11:29:38.544Z,2263.00
2023-05-05T11:30:38.495Z,2264.00
2023-05-05T11:31:38.647Z,2267.00
2023-05-05T11:32:38.591Z,2264.00
2023-05-05T11:33:38.605Z,2263.00
2023-05-05T11:34:38.615Z,2262.00
2023-05-05T11:35:38.680Z,2264.00
2023-05-05T11:36:38.690Z,2262.00
2023-05-05T11:37:38.727Z,2261.00
2023-05-05T11:38:38.742Z,2258.00
2023-05-05T11:39:38.756Z,2254.00
2023-05-05T11:40:38.814Z,2250.00
2023-05-05T11:41:38.835Z,2245.00
2023-05-05T11:42:38.861Z,2242.00
2023-05-05T11:43:38.974Z,2240.00
2023-05-05T11:44:38.949Z,2243.00
2023-05-05T11:45:38.968Z,2239.00
2023-05-05T11:46:39.030Z,2238.00
2023-05-05T11:47:39.074Z,2232.00
2023-05-05T11:48:39.075Z,2232.00
2023-05-05T11:49:39.098Z,2230.00
2023-05-05T11:50:39.159Z,2228.00
2023-05-05T11:51:39.168Z,2230.00
2023-05-05T11:52:39.234Z,2226.00
2023-05-05T11:53:39.255Z,2227.00
2023-05-05T11:54:39.293Z,2225.00
2023-05-05T11:55:39.324Z,2219.00
2023-05-05T11:56:39.368Z,2214.00
2023-05-05T11:57:39.451Z,2209.00
2023-05-05T11:58:39.461Z,2210.00
2023-05-05T11:59:39.485Z,2208.00
2023-05-05T12:00:39.563Z,2206.00
2023-05-05T12:01:39.582Z,2203.00
2023-05-05T12:02:39.654Z,2200.00
2023-05-05T12:03:39.789Z,2197.00
2023-05-05T12:04:39.740Z,2194.00
2023-05-05T12:05:39.770Z,2191.00
2023-05-05T12:06:39.775Z,2192.00
2023-05-05T12:07:39.822Z,2192.00
2023-05-05T12:08:39.863Z,2190.00
2023-05-05T12:09:39.942Z,2187.00
2023-05-05T12:10:39.962Z,2188.00
2023-05-05T12:11:39.995Z,2191.00
2023-05-05T12:12:40.172Z,2192.00
2023-05-05T12:13:40.195Z,2188.00
2023-05-05T12:14:40.127Z,2188.00
2023-05-05T12:15:40.173Z,2186.00
2023-05-05T12:16:40.245Z,2190.00
2023-05-05T12:17:40.348Z,2191.00